Terminal Aerodrome Forecast
Issued by NWS Cleveland, OH

Home | Current Version | Previous Version | Graphics & Text | Print | Product List | Glossary On
Versions: 1 2 3 4 5 6 7 8 9 10 11 12 13 14 15 16 17 18 19 20 21 22 23 24 25 26 27 28
000
FTUS41 KCLE 161400 AAC
TAFCLE
TAF AMD
KCLE 161420Z 1614/1718 35003KT 6SM BR BKN018 BKN025
     FM161500 35006KT P6SM BKN025
     FM161600 35006KT P6SM BKN035
     FM161800 35008KT P6SM SCT045
     FM162300 31004KT P6SM SKC
     FM170600 21004KT P6SM SCT250=

USA.gov is the U.S. government's official web portal to all federal, state and local government web resources and services.